Time;durP1;ratioP1;P1;durP2;ratioP2;P2;SDS_P1;SDS_P2;PMS_P1;PMS_P2;Temp;Humidity;BMP_temperature;BMP_pressure;BME280_temperature;BME280_humidity;BME280_pressure;Samples;Min_cycle;Max_cycle;Signal;HPM_P1;HPM_P2
2024/04/09 00:04:34;;;;;;;6.22;1.92;;;;;;;17.27;50.05;99059.28;4529886;27;20088;-84
2024/04/09 00:07:02;;;;;;;5.65;2.22;;;;;;;17.30;49.78;99051.38;4301056;33;32787;-86
2024/04/09 00:09:31;;;;;;;4.10;2.00;;;;;;;17.18;50.50;99062.06;4312685;33;33205;-87
2024/04/09 00:12:00;;;;;;;4.65;1.92;;;;;;;17.12;50.43;99054.28;4328532;33;33754;-89
2024/04/09 00:14:27;;;;;;;6.50;2.45;;;;;;;17.33;49.76;99050.47;4303383;33;32329;-84
2024/04/09 00:16:54;;;;;;;9.13;2.10;;;;;;;17.20;49.64;99053.31;4288777;33;33307;-87
2024/04/09 00:19:23;;;;;;;7.37;2.53;;;;;;;17.05;50.18;99055.28;4327626;33;33346;-88
2024/04/09 00:21:52;;;;;;;7.25;2.30;;;;;;;17.10;50.04;99056.09;4303135;33;34126;-88
2024/04/09 00:24:18;;;;;;;5.78;2.30;;;;;;;17.11;50.36;99047.34;4313999;33;33436;-88
2024/04/09 00:26:44;;;;;;;5.55;2.20;;;;;;;16.88;51.41;99045.94;4331083;33;33809;-87
2024/04/09 00:29:11;;;;;;;5.75;1.98;;;;;;;17.03;50.32;99045.69;4331123;33;33280;-88
2024/04/09 00:31:38;;;;;;;6.12;2.55;;;;;;;16.97;50.37;99037.94;4317260;33;33119;-87
2024/04/09 00:34:04;;;;;;;4.78;2.40;;;;;;;17.06;49.91;99041.31;4330798;33;34985;-89
2024/04/09 00:36:33;;;;;;;5.00;2.28;;;;;;;16.88;50.50;99043.31;4317479;33;34367;-88
2024/04/09 00:39:00;;;;;;;6.07;2.60;;;;;;;16.87;51.03;99043.34;4330251;33;33564;-85
2024/04/09 00:41:26;;;;;;;8.48;2.65;;;;;;;16.81;50.63;99053.91;4304705;33;32897;-89
2024/04/09 00:43:53;;;;;;;5.55;2.30;;;;;;;16.72;50.77;99047.87;4312245;33;33999;-89
2024/04/09 00:46:20;;;;;;;4.60;2.10;;;;;;;16.82;50.58;99046.03;4329680;33;34447;-91
2024/04/09 00:48:47;;;;;;;6.75;2.40;;;;;;;16.74;51.46;99040.91;4330719;33;34837;-91
2024/04/09 00:51:18;;;;;;;4.60;2.20;;;;;;;16.78;51.07;99046.94;4315934;33;34917;-89
2024/04/09 00:53:45;;;;;;;5.55;2.50;;;;;;;16.93;50.64;99051.97;4301662;33;33780;-89
2024/04/09 00:56:11;;;;;;;5.43;2.50;;;;;;;16.96;50.40;99043.19;4290465;33;33166;-91
2024/04/09 00:58:39;;;;;;;5.12;2.40;;;;;;;16.82;50.53;99050.38;4303168;33;33540;-87
2024/04/09 01:01:05;;;;;;;9.15;2.67;;;;;;;16.68;50.92;99053.19;4315713;33;34006;-92
2024/04/09 01:03:33;;;;;;;6.03;2.20;;;;;;;16.62;50.99;99053.25;4289098;33;77677;-91
2024/04/09 01:05:59;;;;;;;5.50;2.22;;;;;;;16.67;50.91;99054.06;4316650;33;33947;-93
2024/04/09 01:08:26;;;;;;;5.37;2.58;;;;;;;16.62;50.98;99051.50;4302695;33;33002;-93
2024/04/09 01:10:52;;;;;;;6.37;2.47;;;;;;;16.67;50.70;99049.69;4316344;33;34081;-92
2024/04/09 01:13:19;;;;;;;9.07;2.40;;;;;;;16.65;51.24;99046.22;4287919;33;33609;-88
2024/04/09 01:15:46;;;;;;;7.05;2.33;;;;;;;16.54;51.86;99043.75;4311576;33;34477;-91
2024/04/09 01:18:12;;;;;;;6.90;2.50;;;;;;;16.35;51.53;99046.63;4317180;33;33371;-90
2024/04/09 01:20:39;;;;;;;6.20;2.45;;;;;;;16.39;51.33;99043.94;4308278;33;33913;-90
2024/04/09 01:23:06;;;;;;;7.82;2.30;;;;;;;16.33;51.72;99035.31;4316879;33;34033;-91
2024/04/09 01:25:32;;;;;;;5.37;2.50;;;;;;;16.24;52.05;99039.78;4316537;33;33726;-88
2024/04/09 01:27:59;;;;;;;5.15;2.20;;;;;;;16.11;52.78;99042.56;4303302;33;33570;-91
2024/04/09 01:30:26;;;;;;;4.97;2.40;;;;;;;16.30;52.19;99041.47;4316289;33;33753;-89
2024/04/09 01:32:53;;;;;;;7.50;2.47;;;;;;;16.28;52.20;99045.81;4316089;33;33814;-89
2024/04/09 01:35:19;;;;;;;7.30;2.30;;;;;;;16.38;52.21;99046.59;4313706;33;33886;-88
2024/04/09 01:37:46;;;;;;;6.43;2.67;;;;;;;16.45;52.03;99043.88;4315301;33;33816;-87
2024/04/09 01:40:13;;;;;;;4.90;2.40;;;;;;;16.57;51.64;99047.22;4301498;33;33939;-91
2024/04/09 01:42:40;;;;;;;5.65;2.60;;;;;;;16.50;51.39;99042.06;4303366;33;32705;-90
2024/04/09 01:45:06;;;;;;;6.35;2.72;;;;;;;16.29;52.09;99035.38;4303061;33;34243;-88
2024/04/09 01:47:34;;;;;;;6.28;2.70;;;;;;;16.39;51.89;99036.09;4302023;33;32961;-89
2024/04/09 01:50:03;;;;;;;5.55;3.03;;;;;;;16.34;51.83;99030.06;4315299;33;34323;-90
2024/04/09 01:52:31;;;;;;;5.85;2.60;;;;;;;16.33;51.77;99033.59;4303745;33;34017;-88
2024/04/09 01:54:58;;;;;;;6.80;2.50;;;;;;;16.28;51.64;99036.22;4303218;33;34278;-89
2024/04/09 01:57:28;;;;;;;5.82;2.35;;;;;;;16.29;51.88;99042.34;4302926;33;33097;-91
2024/04/09 01:59:55;;;;;;;6.22;2.60;;;;;;;16.13;52.12;99038.16;4316248;33;33826;-89
2024/04/09 02:02:21;;;;;;;9.00;2.40;;;;;;;16.05;52.04;99031.28;4301756;33;34597;-85
2024/04/09 02:04:48;;;;;;;6.50;2.70;;;;;;;16.21;51.66;99029.38;4300153;33;33874;-88
2024/04/09 02:07:14;;;;;;;6.70;2.60;;;;;;;16.27;51.68;99023.19;4315412;33;33865;-90
2024/04/09 02:09:41;;;;;;;6.32;2.53;;;;;;;15.91;52.83;99025.34;4296860;33;33065;-91
2024/04/09 02:12:08;;;;;;;6.50;2.28;;;;;;;15.84;53.27;99028.06;4284987;33;34111;-90
2024/04/09 02:14:35;;;;;;;5.53;2.67;;;;;;;15.91;52.05;99025.34;4315513;33;34193;-91
2024/04/09 02:17:02;;;;;;;7.15;2.80;;;;;;;15.96;52.32;99025.31;4301604;33;33736;-89
2024/04/09 02:19:28;;;;;;;5.60;2.45;;;;;;;16.14;52.06;99026.81;4316452;33;34863;-85
2024/04/09 02:21:56;;;;;;;7.90;2.83;;;;;;;16.09;52.30;99020.78;4316843;33;34949;-90
2024/04/09 02:24:23;;;;;;;5.75;2.45;;;;;;;16.20;52.03;99021.53;4316643;33;34160;-88
2024/04/09 02:26:49;;;;;;;5.72;2.70;;;;;;;16.21;51.94;99023.25;4316515;33;33185;-86
2024/04/09 02:29:16;;;;;;;6.95;2.47;;;;;;;15.99;52.09;99023.50;4316281;33;34570;-90
2024/04/09 02:31:43;;;;;;;7.10;2.72;;;;;;;16.02;51.91;99023.50;4316438;33;33937;-90
2024/04/09 02:34:10;;;;;;;6.22;2.83;;;;;;;15.95;51.98;99018.34;4303556;33;34537;-91
2024/04/09 02:36:37;;;;;;;7.30;2.97;;;;;;;16.00;51.98;99025.25;4290769;33;33275;-89
2024/04/09 02:39:05;;;;;;;7.30;3.05;;;;;;;16.12;51.81;99016.38;4281405;33;32603;-90
2024/04/09 02:41:32;;;;;;;7.25;2.97;;;;;;;15.89;52.13;99015.78;4312689;33;34833;-90
2024/04/09 02:43:58;;;;;;;7.57;2.80;;;;;;;15.93;52.01;99004.41;4303109;33;33389;-86
2024/04/09 02:46:25;;;;;;;8.25;2.62;;;;;;;16.00;51.79;99012.16;4290553;33;33519;-86
2024/04/09 02:48:52;;;;;;;6.00;2.58;;;;;;;15.83;52.70;99011.47;4301523;33;34175;-91
2024/04/09 02:51:20;;;;;;;7.12;2.80;;;;;;;15.80;52.50;99006.31;4302454;33;33188;-91
2024/04/09 02:53:46;;;;;;;4.47;2.62;;;;;;;15.80;52.48;99009.78;4315591;33;33964;-88
2024/04/09 02:56:13;;;;;;;8.20;3.12;;;;;;;15.73;52.57;99012.47;4316050;33;33601;-86
2024/04/09 02:58:40;;;;;;;6.18;2.90;;;;;;;15.75;52.51;99011.56;4296368;33;34270;-87
2024/04/09 03:01:09;;;;;;;7.05;2.92;;;;;;;15.82;52.34;99020.22;4308808;33;33828;-90
2024/04/09 03:03:36;;;;;;;6.93;3.10;;;;;;;15.73;52.32;99015.09;4278216;33;33948;-88
2024/04/09 03:06:13;;;;;;;7.03;3.00;;;;;;;15.75;52.09;99005.47;4302356;33;32687;-87
2024/04/09 03:08:43;;;;;;;6.32;3.47;;;;;;;15.81;51.98;99013.25;4300137;33;33201;-90
2024/04/09 03:11:14;;;;;;;5.75;2.67;;;;;;;15.83;52.28;99014.09;4297789;33;33686;-90
2024/04/09 03:13:42;;;;;;;10.60;3.30;;;;;;;15.78;52.58;99015.91;4302570;33;33195;-90
2024/04/09 03:16:17;;;;;;;7.37;3.10;;;;;;;15.69;52.71;99016.00;4302963;33;33808;-92
2024/04/09 03:18:44;;;;;;;6.22;3.05;;;;;;;15.63;52.98;99016.03;4303079;33;33423;-91
2024/04/09 03:21:11;;;;;;;5.87;2.95;;;;;;;15.77;52.61;99022.03;4302867;33;33976;-89
2024/04/09 03:23:39;;;;;;;6.65;2.70;;;;;;;15.56;52.84;99023.91;4316094;33;34020;-88
2024/04/09 03:26:06;;;;;;;6.45;3.17;;;;;;;15.56;52.91;99021.31;4302911;33;33274;-87
2024/04/09 03:28:33;;;;;;;5.90;2.78;;;;;;;15.54;52.74;99014.38;4302602;33;33472;-91
2024/04/09 03:31:01;;;;;;;6.65;2.55;;;;;;;15.66;52.50;99021.25;4299817;33;33279;-91
2024/04/09 03:33:28;;;;;;;7.53;3.33;;;;;;;15.61;52.56;99012.56;4302288;33;34540;-90
2024/04/09 03:35:57;;;;;;;6.80;3.12;;;;;;;15.65;52.80;99012.56;4301571;33;32898;-90
2024/04/09 03:38:24;;;;;;;5.85;3.00;;;;;;;15.55;52.99;99016.09;4301772;33;34530;-91
2024/04/09 03:40:54;;;;;;;7.95;2.80;;;;;;;15.30;53.75;99015.44;4296200;33;33248;-91
2024/04/09 03:43:20;;;;;;;6.15;3.10;;;;;;;15.19;54.10;99012.97;4303106;33;33910;-91
2024/04/09 03:46:07;;;;;;;6.97;3.25;;;;;;;15.20;54.11;99008.59;4314939;33;33972;-87
2024/04/09 03:48:34;;;;;;;7.95;3.03;;;;;;;15.17;54.28;99004.25;4315234;33;34594;-87
2024/04/09 03:51:05;;;;;;;5.87;2.70;;;;;;;15.14;54.45;99008.63;4314587;33;33742;-87
2024/04/09 03:53:33;;;;;;;6.12;2.78;;;;;;;15.24;54.16;98997.25;4300521;33;33530;-91
2024/04/09 03:56:02;;;;;;;6.03;3.10;;;;;;;14.74;56.20;99003.72;4314731;33;34389;-91
2024/04/09 03:58:31;;;;;;;7.15;2.87;;;;;;;14.40;56.85;99003.03;4315649;33;33942;-86
2024/04/09 04:00:59;;;;;;;8.05;3.12;;;;;;;14.79;55.78;99001.94;4303163;33;33940;-91
2024/04/09 04:03:26;;;;;;;7.03;3.25;;;;;;;14.43;56.62;99009.06;4303025;33;33892;-85
2024/04/09 04:05:54;;;;;;;6.22;3.28;;;;;;;14.59;55.99;99007.28;4288593;33;34243;-88
2024/04/09 04:08:32;;;;;;;7.12;3.45;;;;;;;14.73;55.50;99005.44;4298491;33;33759;-90
2024/04/09 04:11:01;;;;;;;7.47;2.90;;;;;;;14.84;55.70;99005.38;4310069;33;34751;-85
2024/04/09 04:13:29;;;;;;;8.60;3.75;;;;;;;14.89;55.32;99001.00;4313975;33;33228;-89
2024/04/09 04:16:04;;;;;;;8.48;3.33;;;;;;;14.98;55.17;99003.53;4302238;33;33489;-90
2024/04/09 04:18:31;;;;;;;8.60;3.00;;;;;;;15.05;55.38;98999.12;4316169;33;33504;-90
2024/04/09 04:20:58;;;;;;;6.85;2.70;;;;;;;14.99;55.34;99004.41;4315586;33;34121;-84
2024/04/09 04:23:24;;;;;;;7.47;2.95;;;;;;;14.93;55.42;98996.63;4313252;33;34349;-88
2024/04/09 04:26:06;;;;;;;5.37;2.50;;;;;;;14.91;55.76;98988.78;4312325;33;33573;-85
2024/04/09 04:28:40;;;;;;;6.95;2.87;;;;;;;15.17;55.00;98985.13;4315437;33;34511;-90
2024/04/09 04:31:09;;;;;;;9.27;2.90;;;;;;;15.14;55.03;98987.75;4310598;33;34834;-90
2024/04/09 04:33:39;;;;;;;6.68;3.22;;;;;;;15.23;54.65;98987.69;4303980;33;33423;-91
2024/04/09 04:36:06;;;;;;;6.40;2.80;;;;;;;15.30;54.44;98987.63;4290838;33;33979;-91
2024/04/09 04:38:34;;;;;;;6.15;2.72;;;;;;;15.32;54.73;98990.19;4302594;33;33598;-86
2024/04/09 04:41:01;;;;;;;7.28;3.20;;;;;;;15.21;55.24;98982.47;4312958;33;34611;-88
2024/04/09 04:43:27;;;;;;;8.07;2.87;;;;;;;15.18;54.94;98986.84;4316867;33;32974;-91
2024/04/09 04:45:55;;;;;;;7.78;3.35;;;;;;;15.47;54.20;98986.56;4300376;33;33333;-86
2024/04/09 04:48:21;;;;;;;8.80;2.90;;;;;;;15.37;54.99;98987.53;4300281;33;33534;-85
2024/04/09 04:50:48;;;;;;;8.25;2.72;;;;;;;15.44;55.12;98991.81;4296483;33;33697;-86
2024/04/09 04:53:15;;;;;;;8.50;2.70;;;;;;;15.62;54.51;98985.56;4302312;33;33626;-85
2024/04/09 04:55:42;;;;;;;6.55;2.87;;;;;;;15.52;54.58;98990.88;4302252;33;33358;-90
2024/04/09 04:58:09;;;;;;;8.88;2.95;;;;;;;15.66;54.58;98987.28;4310140;33;33828;-89
2024/04/09 05:00:36;;;;;;;9.40;3.70;;;;;;;15.52;55.00;98980.41;4303946;33;34476;-84
2024/04/09 05:03:03;;;;;;;8.38;3.22;;;;;;;15.51;55.42;98989.13;4316027;33;34027;-89
2024/04/09 05:05:30;;;;;;;6.00;2.78;;;;;;;15.62;54.97;98982.94;4301351;33;35360;-90
2024/04/09 05:07:57;;;;;;;8.68;3.97;;;;;;;15.71;54.69;98985.47;4308200;33;34094;-87
2024/04/09 05:10:24;;;;;;;8.15;2.92;;;;;;;15.73;54.71;98989.81;4316320;33;34709;-85
2024/04/09 05:12:51;;;;;;;6.32;3.10;;;;;;;15.73;54.88;98989.81;4301478;33;33722;-91
2024/04/09 05:15:19;;;;;;;8.18;3.10;;;;;;;15.61;54.58;98987.31;4303316;33;33742;-85
2024/04/09 05:17:46;;;;;;;7.70;3.00;;;;;;;15.61;53.61;98994.25;4303535;33;33677;-90
2024/04/09 05:20:14;;;;;;;10.60;3.05;;;;;;;15.60;55.26;98989.91;4302532;33;34378;-91
2024/04/09 05:22:49;;;;;;;7.32;3.22;;;;;;;15.63;54.06;98985.53;4302953;33;34005;-91
2024/04/09 05:25:17;;;;;;;6.78;3.25;;;;;;;15.75;54.97;98992.41;4291400;33;32693;-91
2024/04/09 05:27:45;;;;;;;6.57;2.80;;;;;;;15.46;57.50;99006.62;4292043;33;34067;-91
2024/04/09 05:30:12;;;;;;;8.05;3.20;;;;;;;15.65;56.09;99007.34;4302999;33;34185;-86
2024/04/09 05:32:41;;;;;;;6.05;2.80;;;;;;;15.83;55.50;98998.41;4300247;33;33852;-88
2024/04/09 05:35:09;;;;;;;6.32;2.90;;;;;;;15.98;55.23;99006.06;4303220;33;33480;-90
2024/04/09 05:37:36;;;;;;;7.35;2.90;;;;;;;16.04;55.20;99000.78;4302928;33;34239;-86
2024/04/09 05:40:08;;;;;;;8.20;2.70;;;;;;;15.86;55.58;99006.22;4303203;33;34259;-88
2024/04/09 05:42:42;;;;;;;7.65;3.08;;;;;;;16.15;54.48;99007.66;4316549;33;33611;-90
2024/04/09 05:45:11;;;;;;;8.85;3.33;;;;;;;15.90;53.80;99007.91;4317382;33;33338;-88
2024/04/09 05:47:38;;;;;;;5.00;2.90;;;;;;;16.34;53.31;99009.13;4304294;33;33429;-85
2024/04/09 05:50:05;;;;;;;11.00;3.30;;;;;;;16.24;52.49;99015.38;4317544;33;34060;-85
2024/04/09 05:52:32;;;;;;;7.53;3.10;;;;;;;16.05;51.76;99017.34;4316660;33;33926;-85
2024/04/09 05:54:59;;;;;;;6.12;2.80;;;;;;;16.00;51.76;99012.16;4316580;33;33412;-85
2024/04/09 05:57:26;;;;;;;7.62;3.08;;;;;;;15.91;51.79;99014.00;4317721;33;33746;-84
2024/04/09 05:59:54;;;;;;;8.95;3.50;;;;;;;16.34;51.14;99013.50;4317551;33;34120;-84
2024/04/09 06:02:21;;;;;;;11.73;3.28;;;;;;;16.04;52.56;99013.88;4317365;33;33921;-84
2024/04/09 06:04:48;;;;;;;7.43;3.45;;;;;;;16.28;52.16;99027.50;4317417;33;34278;-86
2024/04/09 06:07:14;;;;;;;16.92;3.15;;;;;;;16.35;51.57;99023.94;4304246;33;33824;-84
2024/04/09 06:53:25;;;;;;;10.02;3.15;;;;;;;16.97;51.10;98993.44;4742118;27;20115;-86
2024/04/09 06:55:52;;;;;;;7.10;3.03;;;;;;;16.46;51.88;99006.34;4330966;33;33525;-85
2024/04/09 06:58:19;;;;;;;8.30;3.35;;;;;;;16.51;51.00;98999.28;4317523;33;34864;-86
2024/04/09 07:00:47;;;;;;;6.93;3.53;;;;;;;16.32;52.53;99008.28;4330959;33;34002;-84
2024/04/09 07:03:14;;;;;;;10.05;3.35;;;;;;;16.53;52.65;98994.91;4317576;33;34084;-84
2024/04/09 07:05:40;;;;;;;9.30;3.00;;;;;;;16.81;52.60;99002.37;4330856;33;33911;-86
2024/04/09 07:08:07;;;;;;;8.27;3.20;;;;;;;17.04;51.64;98991.56;4330874;33;34930;-86
2024/04/09 07:10:33;;;;;;;11.65;3.25;;;;;;;16.77;51.81;99003.31;4317237;33;33839;-85
2024/04/09 07:13:00;;;;;;;8.23;3.40;;;;;;;16.57;52.50;99000.13;4317199;33;33298;-86
2024/04/09 07:15:26;;;;;;;6.50;3.15;;;;;;;17.16;52.04;98998.34;4330880;33;33515;-85
2024/04/09 07:17:54;;;;;;;8.40;3.35;;;;;;;17.35;50.33;98994.56;4330841;33;33702;-85
2024/04/09 07:20:23;;;;;;;11.07;3.62;;;;;;;17.31;50.68;98994.59;4317574;33;33167;-85
2024/04/09 07:22:50;;;;;;;10.70;3.20;;;;;;;17.39;49.89;98993.59;4330689;33;33389;-89
2024/04/09 07:25:17;;;;;;;11.80;3.53;;;;;;;17.54;50.16;98996.81;4330510;33;33928;-89
2024/04/09 07:27:44;;;;;;;7.87;2.70;;;;;;;17.38;50.53;98988.37;4304986;33;33122;-87
2024/04/09 07:30:10;;;;;;;8.02;2.97;;;;;;;17.75;50.14;98996.47;4330673;33;34477;-87
2024/04/09 07:32:37;;;;;;;12.25;2.97;;;;;;;18.17;49.30;98993.88;4304846;33;32996;-88
2024/04/09 07:35:04;;;;;;;9.05;3.15;;;;;;;18.16;48.90;98982.53;4330511;33;33829;-87
2024/04/09 07:37:31;;;;;;;8.45;3.12;;;;;;;18.32;49.81;98990.94;4317413;33;34980;-87
2024/04/09 07:39:58;;;;;;;8.65;3.00;;;;;;;18.21;48.80;98979.81;4317112;33;32483;-88
2024/04/09 07:42:24;;;;;;;6.57;2.67;;;;;;;18.19;49.10;98982.47;4330677;33;33839;-85
2024/04/09 07:44:51;;;;;;;7.22;2.70;;;;;;;18.47;48.38;98979.25;4317248;33;33415;-87
2024/04/09 07:47:20;;;;;;;9.57;2.95;;;;;;;18.56;47.23;98986.03;4330592;33;34211;-86
2024/04/09 07:49:47;;;;;;;7.50;2.90;;;;;;;18.64;48.09;98974.47;4330533;33;33806;-86
2024/04/09 07:52:14;;;;;;;11.05;2.95;;;;;;;18.98;47.67;98983.34;4330445;33;33089;-85
2024/04/09 07:54:40;;;;;;;7.05;2.90;;;;;;;18.87;47.02;98981.84;4330030;33;33700;-84
2024/04/09 07:57:14;;;;;;;12.77;3.30;;;;;;;18.73;47.79;98981.31;4330227;33;33843;-88
2024/04/09 07:59:46;;;;;;;8.65;4.07;;;;;;;18.85;47.86;98973.13;4318763;33;34505;-87
2024/04/09 08:02:12;;;;;;;8.93;3.08;;;;;;;18.69;47.82;98977.00;4323629;33;34215;-85
2024/04/09 08:04:39;;;;;;;5.45;2.47;;;;;;;19.00;47.51;98981.56;4323309;33;33732;-85
2024/04/09 08:07:06;;;;;;;9.95;3.35;;;;;;;19.09;47.85;98978.69;4329639;33;34881;-86
2024/04/09 08:09:32;;;;;;;14.32;3.17;;;;;;;19.02;47.75;98977.13;4329350;33;34016;-87
2024/04/09 08:11:59;;;;;;;7.93;2.90;;;;;;;19.13;47.95;98977.72;4330090;33;34421;-85
2024/04/09 08:14:25;;;;;;;10.35;3.30;;;;;;;19.49;47.27;98969.78;4330314;33;33806;-88
2024/04/09 08:16:52;;;;;;;13.40;3.45;;;;;;;19.81;46.87;98972.47;4316652;33;33541;-90
2024/04/09 08:19:19;;;;;;;8.52;2.33;;;;;;;19.53;45.54;98977.56;4329832;33;33798;-85
2024/04/09 08:21:45;;;;;;;8.45;2.50;;;;;;;19.79;45.70;98976.88;4329947;33;33455;-87
2024/04/09 08:24:12;;;;;;;4.82;2.10;;;;;;;19.58;45.52;98985.31;4322324;33;34977;-87
2024/04/09 08:26:41;;;;;;;7.62;2.50;;;;;;;19.90;45.30;98972.19;4312898;33;35472;-88
2024/04/09 08:29:10;;;;;;;8.57;2.60;;;;;;;20.10;45.36;98968.97;4301793;33;33744;-87
2024/04/09 08:31:37;;;;;;;7.15;2.50;;;;;;;20.21;45.00;98966.03;4315201;33;33439;-88
2024/04/09 08:34:04;;;;;;;9.98;2.40;;;;;;;20.14;45.05;98962.72;4315116;33;33946;-87
2024/04/09 08:36:30;;;;;;;7.20;2.45;;;;;;;20.27;45.19;98959.75;4325166;33;34625;-89
2024/04/09 08:38:58;;;;;;;8.18;2.50;;;;;;;20.48;44.80;98955.59;4329315;33;33800;-89
2024/04/09 08:41:26;;;;;;;10.38;2.50;;;;;;;20.34;44.75;98954.25;4329440;33;33426;-88
2024/04/09 08:43:53;;;;;;;9.18;3.15;;;;;;;20.59;44.78;98951.75;4316219;33;33612;-89
2024/04/09 08:46:20;;;;;;;12.18;2.80;;;;;;;20.55;44.43;98955.38;4316428;33;34932;-88
2024/04/09 08:48:47;;;;;;;10.25;3.10;;;;;;;20.45;43.97;98958.31;4318215;33;33782;-90
2024/04/09 08:51:14;;;;;;;10.13;2.92;;;;;;;20.81;43.75;98941.37;4331573;33;33170;-89
2024/04/09 08:53:41;;;;;;;12.50;2.72;;;;;;;20.59;44.05;98946.47;4311121;33;34184;-87
2024/04/09 08:56:07;;;;;;;11.02;2.78;;;;;;;20.94;44.24;98948.87;4312561;33;34155;-89
2024/04/09 08:58:34;;;;;;;9.48;2.67;;;;;;;20.74;44.45;98950.38;4318248;33;33738;-89
2024/04/09 09:01:01;;;;;;;10.13;2.12;;;;;;;21.01;43.55;98953.03;4305909;33;31886;-91
2024/04/09 09:03:28;;;;;;;8.25;2.30;;;;;;;20.87;43.56;98950.84;4317961;33;34004;-88
2024/04/09 09:06:00;;;;;;;8.00;2.28;;;;;;;20.81;43.31;98959.81;4318167;33;34615;-90
2024/04/09 09:08:26;;;;;;;7.45;2.10;;;;;;;21.19;44.08;98957.72;4318301;33;33771;-88
2024/04/09 09:10:54;;;;;;;10.80;1.92;;;;;;;21.40;43.25;98955.28;4318306;33;34057;-88
2024/04/09 09:13:21;;;;;;;7.43;2.00;;;;;;;21.46;42.88;98950.66;4317252;33;34014;-87
2024/04/09 09:15:55;;;;;;;8.30;2.12;;;;;;;21.92;42.57;98953.41;4330847;33;35067;-85
2024/04/09 09:18:23;;;;;;;9.07;2.30;;;;;;;22.00;42.41;98961.91;4331637;33;34115;-90
2024/04/09 09:21:03;;;;;;;11.32;2.62;;;;;;;22.33;40.71;98947.47;4318463;33;33257;-89
2024/04/09 09:23:30;;;;;;;6.50;1.92;;;;;;;22.52;40.43;98938.84;4317654;33;34081;-90
2024/04/09 09:25:57;;;;;;;5.87;2.10;;;;;;;22.80;40.86;98935.94;4306163;33;34949;-84
2024/04/09 09:28:27;;;;;;;7.87;1.83;;;;;;;22.68;39.93;98937.28;4305829;33;33125;-87
2024/04/09 09:30:57;;;;;;;9.90;2.12;;;;;;;22.41;40.44;98943.69;4318689;33;33427;-89
2024/04/09 09:33:29;;;;;;;7.47;2.10;;;;;;;22.38;39.73;98927.94;4331308;33;34662;-90
2024/04/09 09:35:57;;;;;;;9.23;2.10;;;;;;;22.26;40.26;98931.91;4318381;33;34786;-86
2024/04/09 09:38:26;;;;;;;5.60;1.55;;;;;;;22.44;39.72;98925.06;4305810;33;32266;-87
2024/04/09 09:40:53;;;;;;;9.02;2.20;;;;;;;22.39;40.36;98919.97;4318117;33;34249;-87
2024/04/09 09:43:22;;;;;;;5.80;1.98;;;;;;;22.32;39.37;98929.06;4317927;33;34016;-89
2024/04/09 09:45:49;;;;;;;8.70;2.15;;;;;;;22.27;39.71;98923.94;4317990;33;34107;-88
2024/04/09 09:48:20;;;;;;;5.20;2.22;;;;;;;22.23;39.90;98924.09;4318308;33;34619;-88
2024/04/09 09:50:47;;;;;;;7.68;3.05;;;;;;;22.45;39.90;98918.84;4317785;33;33122;-89
2024/04/09 09:53:17;;;;;;;11.38;2.28;;;;;;;22.28;39.98;98915.09;4331269;33;33779;-89
2024/04/09 09:55:44;;;;;;;9.23;1.90;;;;;;;22.72;39.61;98915.09;4331210;33;34476;-89
2024/04/09 09:58:17;;;;;;;9.68;2.55;;;;;;;22.85;39.51;98911.97;4317278;33;33748;-89
2024/04/09 10:00:44;;;;;;;11.30;1.87;;;;;;;22.88;39.62;98914.47;4317720;33;33105;-88
2024/04/09 10:03:11;;;;;;;9.20;1.87;;;;;;;23.04;39.48;98907.69;4318049;33;33434;-90
2024/04/09 10:05:38;;;;;;;8.55;1.90;;;;;;;23.43;38.75;98904.22;4317893;33;34030;-89
2024/04/09 10:08:17;;;;;;;10.63;2.08;;;;;;;23.40;38.27;98912.31;4317647;33;33907;-89
2024/04/09 10:10:44;;;;;;;5.62;1.70;;;;;;;24.01;37.53;98914.88;4331183;33;34352;-89
2024/04/09 10:13:10;;;;;;;9.93;1.75;;;;;;;24.09;37.96;98906.56;4305971;33;32110;-89
2024/04/09 10:15:43;;;;;;;5.03;1.62;;;;;;;24.23;36.47;98893.56;4331027;33;34128;-87
2024/04/09 10:18:10;;;;;;;5.37;1.65;;;;;;;24.07;36.91;98898.72;4305697;33;33120;-90
2024/04/09 10:20:37;;;;;;;7.50;2.20;;;;;;;24.10;36.32;98893.28;4317810;33;34219;-87
2024/04/09 10:23:05;;;;;;;5.12;1.60;;;;;;;24.01;36.85;98893.69;4318071;33;34062;-87
2024/04/09 10:25:39;;;;;;;9.73;1.52;;;;;;;24.01;37.00;98888.41;4331022;33;34294;-89
2024/04/09 10:28:08;;;;;;;5.25;1.83;;;;;;;23.70;36.86;98891.59;4330856;33;34470;-90
2024/04/09 10:30:39;;;;;;;4.05;1.52;;;;;;;24.21;36.51;98891.00;4317805;33;34189;-90
2024/04/09 10:33:07;;;;;;;5.72;1.90;;;;;;;24.44;37.48;98876.66;4330739;33;33741;-90
2024/04/09 10:35:34;;;;;;;6.37;1.65;;;;;;;24.38;35.15;98881.37;4330652;33;33384;-88
2024/04/09 10:38:05;;;;;;;8.57;1.75;;;;;;;24.49;36.69;98879.09;4331082;33;34352;-90
2024/04/09 10:40:35;;;;;;;12.43;1.90;;;;;;;24.87;35.56;98879.00;4318205;33;34352;-90
2024/04/09 10:43:05;;;;;;;4.82;1.40;;;;;;;24.46;36.47;98880.09;4331233;33;34161;-90
2024/04/09 10:45:32;;;;;;;8.18;1.67;;;;;;;24.99;35.62;98886.31;4316369;33;34995;-90
2024/04/09 10:48:00;;;;;;;6.22;1.27;;;;;;;25.43;34.27;98884.06;4317858;33;33280;-90
2024/04/09 10:50:27;;;;;;;6.62;1.67;;;;;;;25.11;34.15;98864.50;4330982;33;34183;-90
2024/04/09 10:52:54;;;;;;;6.53;1.48;;;;;;;25.15;32.57;98874.00;4317667;33;33216;-90
2024/04/09 10:55:21;;;;;;;5.53;1.62;;;;;;;25.40;32.96;98867.44;4317503;33;33879;-91
2024/04/09 10:57:52;;;;;;;4.95;1.37;;;;;;;25.23;33.29;98863.88;4330994;33;33865;-89
2024/04/09 11:00:20;;;;;;;7.10;1.85;;;;;;;25.79;33.04;98860.97;4331212;33;34269;-90
2024/04/09 11:02:47;;;;;;;4.80;1.33;;;;;;;25.94;33.06;98852.16;4317658;33;33456;-91
2024/04/09 11:05:16;;;;;;;4.10;1.20;;;;;;;26.16;32.38;98846.53;4302554;33;33490;-91
2024/04/09 11:07:45;;;;;;;4.03;1.40;;;;;;;25.69;33.00;98845.53;4303045;33;33195;-85
2024/04/09 11:10:14;;;;;;;6.75;1.30;;;;;;;25.22;32.30;98856.84;4302887;33;33091;-91
2024/04/09 11:12:46;;;;;;;7.65;1.25;;;;;;;25.40;32.88;98851.53;4302999;33;34714;-91
2024/04/09 11:15:14;;;;;;;7.28;1.23;;;;;;;25.52;33.54;98839.41;4312656;33;34131;-91
2024/04/09 11:17:41;;;;;;;6.65;1.10;;;;;;;25.60;33.39;98835.37;4305406;33;34675;-91
2024/04/09 11:20:11;;;;;;;5.25;1.40;;;;;;;25.87;32.40;98845.47;4329577;33;33549;-90
2024/04/09 11:22:41;;;;;;;4.07;1.30;;;;;;;26.16;33.17;98841.22;4330831;33;33834;-91
2024/04/09 11:25:13;;;;;;;3.37;1.25;;;;;;;25.53;32.57;98831.34;4317061;33;32971;-91
2024/04/09 11:27:40;;;;;;;5.65;1.37;;;;;;;25.82;33.13;98835.13;4317491;33;33261;-90
2024/04/09 11:30:07;;;;;;;4.12;1.35;;;;;;;26.10;31.83;98821.19;4317570;33;33123;-90
2024/04/09 11:32:39;;;;;;;4.45;1.30;;;;;;;26.00;31.92;98819.97;4317357;33;34256;-90
2024/04/09 11:35:17;;;;;;;7.37;1.50;;;;;;;26.03;31.30;98810.97;4305302;33;34174;-86
2024/04/09 11:37:52;;;;;;;5.95;1.30;;;;;;;25.50;31.63;98809.44;4317549;33;33891;-88
2024/04/09 11:40:22;;;;;;;6.03;1.83;;;;;;;25.82;31.83;98810.34;4317131;33;33898;-89
2024/04/09 11:42:50;;;;;;;3.75;1.10;;;;;;;25.90;31.90;98803.66;4320494;33;34851;-89
2024/04/09 11:45:21;;;;;;;5.72;1.60;;;;;;;26.06;31.68;98802.81;4330632;33;33836;-88
2024/04/09 11:47:48;;;;;;;3.80;1.02;;;;;;;26.02;32.02;98804.78;4317461;33;34716;-89
2024/04/09 11:50:15;;;;;;;7.45;1.35;;;;;;;26.22;32.28;98805.47;4329406;33;33678;-87
2024/04/09 11:52:41;;;;;;;3.67;1.08;;;;;;;26.61;31.73;98797.88;4329791;33;34611;-87
2024/04/09 11:55:08;;;;;;;9.07;1.50;;;;;;;26.25;31.40;98803.47;4325329;33;33425;-89
2024/04/09 11:57:36;;;;;;;4.00;1.30;;;;;;;25.99;31.66;98802.31;4329953;33;33473;-90
2024/04/09 12:00:03;;;;;;;3.90;1.40;;;;;;;26.09;31.46;98802.66;4329023;33;34359;-90
2024/04/09 12:02:31;;;;;;;5.22;1.40;;;;;;;26.08;31.95;98803.59;4330040;33;34684;-89
2024/04/09 12:04:57;;;;;;;5.65;1.52;;;;;;;26.26;32.20;98804.34;4329111;33;34130;-89
2024/04/09 12:07:24;;;;;;;8.25;1.37;;;;;;;26.04;32.17;98797.59;4330254;33;33627;-89
2024/04/09 12:09:50;;;;;;;12.52;1.85;;;;;;;26.07;32.09;98786.81;4330224;33;33320;-88
2024/04/09 12:12:17;;;;;;;6.95;1.12;;;;;;;25.92;32.03;98788.53;4330297;33;34535;-87
2024/04/09 12:14:44;;;;;;;4.90;1.25;;;;;;;26.18;31.63;98789.72;4304394;33;33823;-89
2024/04/09 12:17:10;;;;;;;6.97;1.80;;;;;;;26.14;32.01;98790.84;4315328;33;33449;-87
2024/04/09 12:19:39;;;;;;;3.58;1.27;;;;;;;26.58;34.06;98787.41;4315637;33;33003;-89
2024/04/09 12:22:06;;;;;;;8.02;1.40;;;;;;;26.86;31.28;98783.13;4316783;33;33944;-89